createdAt,value
2023-03-06T00:00:47.684Z,0.68
2023-03-06T00:04:47.561Z,0.68
2023-03-06T00:08:47.482Z,0.68
2023-03-06T00:12:46.638Z,0.68
2023-03-06T00:16:46.757Z,0.68
2023-03-06T00:20:46.693Z,0.68
2023-03-06T00:24:46.836Z,0.68
2023-03-06T00:28:47.144Z,0.68
2023-03-06T00:32:47.444Z,0.68
2023-03-06T00:36:47.227Z,0.68
2023-03-06T00:40:47.343Z,0.68
2023-03-06T00:44:47.341Z,0.68
2023-03-06T00:48:47.287Z,0.68
2023-03-06T00:52:47.265Z,0.68
2023-03-06T00:56:47.310Z,0.68
2023-03-06T01:00:53.536Z,0.68
2023-03-06T01:04:46.441Z,0.68
2023-03-06T01:08:46.484Z,0.68
2023-03-06T01:12:46.707Z,0.68
2023-03-06T01:16:47.047Z,0.68
2023-03-06T01:20:47.107Z,0.68
2023-03-06T01:24:47.149Z,0.68
2023-03-06T01:28:47.309Z,0.68
2023-03-06T01:32:47.819Z,0.68
2023-03-06T01:36:46.639Z,0.68
2023-03-06T01:40:46.523Z,0.68
2023-03-06T01:44:46.451Z,0.68
2023-03-06T01:48:46.499Z,0.68
2023-03-06T01:52:46.326Z,0.68
2023-03-06T01:56:47.123Z,0.68
2023-03-06T02:00:51.705Z,0.68
2023-03-06T02:04:46.741Z,0.68
2023-03-06T02:08:46.641Z,0.68
2023-03-06T02:12:46.952Z,0.68
2023-03-06T02:16:46.708Z,0.68
2023-03-06T02:20:46.423Z,0.68
2023-03-06T02:24:46.534Z,0.68
2023-03-06T02:28:47.363Z,0.68
2023-03-06T02:32:47.818Z,0.68
2023-03-06T02:36:47.072Z,0.68
2023-03-06T02:40:47.026Z,0.68
2023-03-06T02:44:46.895Z,0.68
2023-03-06T02:48:46.934Z,0.68
2023-03-06T02:52:46.867Z,0.68
2023-03-06T02:56:46.677Z,0.68
2023-03-06T03:00:52.350Z,0.68
2023-03-06T03:04:46.678Z,0.68
2023-03-06T03:08:46.543Z,0.68
2023-03-06T03:12:46.316Z,0.68
2023-03-06T03:16:50.454Z,0.68
2023-03-06T03:20:47.478Z,0.68
2023-03-06T03:24:47.546Z,0.68
2023-03-06T03:28:47.250Z,0.68
2023-03-06T03:32:47.178Z,0.68
2023-03-06T03:36:47.221Z,0.68
2023-03-06T03:40:46.989Z,0.68
2023-03-06T03:44:46.958Z,0.68
2023-03-06T03:48:46.945Z,0.68
2023-03-06T03:52:46.907Z,0.68
2023-03-06T03:56:46.878Z,0.68
2023-03-06T04:00:50.581Z,0.68
2023-03-06T04:04:46.684Z,0.68
2023-03-06T04:08:46.492Z,0.68
2023-03-06T04:12:46.381Z,0.68
2023-03-06T04:16:46.567Z,0.68
2023-03-06T04:20:46.788Z,0.68
2023-03-06T04:24:46.716Z,0.68
2023-03-06T04:28:46.820Z,0.68
2023-03-06T04:32:47.434Z,0.68
2023-03-06T04:36:47.159Z,0.68
2023-03-06T04:40:47.554Z,0.68
2023-03-06T04:44:46.433Z,0.68
2023-03-06T04:48:46.643Z,0.68
2023-03-06T04:52:46.824Z,0.68
2023-03-06T04:56:46.997Z,0.68
2023-03-06T05:00:50.916Z,0.68
2023-03-06T05:04:46.887Z,0.68
2023-03-06T05:08:47.321Z,0.68
2023-03-06T05:12:47.264Z,0.68
2023-03-06T05:16:46.926Z,0.68
2023-03-06T05:20:46.843Z,0.68
2023-03-06T05:24:46.829Z,0.68
2023-03-06T05:28:47.000Z,0.68
2023-03-06T05:32:48.111Z,0.68
2023-03-06T05:36:47.302Z,0.68
2023-03-06T05:40:47.296Z,0.68
2023-03-06T05:44:46.591Z,0.68
2023-03-06T05:48:47.096Z,0.68
2023-03-06T05:52:47.036Z,0.68
2023-03-06T05:56:46.807Z,0.68
2023-03-06T06:00:51.010Z,0.68
2023-03-06T06:04:46.866Z,0.68
2023-03-06T06:08:47.205Z,0.68
2023-03-06T06:12:47.024Z,0.68
2023-03-06T06:16:47.652Z,0.68
2023-03-06T06:20:47.096Z,0.68
2023-03-06T06:24:47.123Z,0.68
2023-03-06T06:28:47.274Z,0.68
2023-03-06T06:32:47.386Z,0.68
2023-03-06T06:36:47.261Z,0.68
2023-03-06T06:41:11.462Z,0.68
2023-03-06T06:44:47.023Z,0.68
2023-03-06T06:48:46.944Z,0.68
2023-03-06T06:52:46.856Z,0.68
2023-03-06T06:56:46.858Z,0.68
2023-03-06T07:00:51.358Z,0.68
2023-03-06T07:05:02.467Z,0.68
2023-03-06T07:08:47.193Z,0.68
2023-03-06T07:12:47.150Z,0.68
2023-03-06T07:16:47.165Z,0.68
2023-03-06T07:20:47.019Z,0.68
2023-03-06T07:24:47.051Z,0.68
2023-03-06T07:29:03.049Z,0.68
2023-03-06T07:32:47.654Z,0.68
2023-03-06T07:36:47.996Z,0.68
2023-03-06T07:40:46.465Z,0.68
2023-03-06T07:44:46.379Z,0.68
2023-03-06T07:48:47.347Z,0.68
2023-03-06T07:52:47.204Z,0.68
2023-03-06T07:56:47.264Z,0.68
2023-03-06T08:00:50.707Z,0.68
2023-03-06T08:04:46.927Z,0.68
2023-03-06T08:08:46.796Z,0.68
2023-03-06T08:12:48.048Z,0.68
2023-03-06T08:16:47.198Z,0.68
2023-03-06T08:20:46.897Z,0.68
2023-03-06T08:24:47.039Z,6.07
2023-03-06T08:28:46.849Z,6.07
2023-03-06T08:32:47.165Z,0.44
2023-03-06T08:36:47.688Z,0.44
2023-03-06T08:40:46.884Z,0.44
2023-03-06T08:44:46.759Z,0.44
2023-03-06T08:48:46.581Z,0.44
2023-03-06T08:52:46.460Z,0.44
2023-03-06T08:56:47.148Z,0.44
2023-03-06T09:00:50.714Z,0.44
2023-03-06T09:04:47.123Z,0.44
2023-03-06T09:08:47.025Z,0.44
2023-03-06T09:13:01.330Z,0.44
2023-03-06T09:16:47.373Z,0.44
2023-03-06T09:20:47.007Z,0.44
2023-03-06T09:24:46.924Z,0.44
2023-03-06T09:28:56.575Z,0.44
2023-03-06T09:32:47.559Z,0.44
2023-03-06T09:37:07.666Z,1.46
2023-03-06T09:40:47.507Z,1.46
2023-03-06T09:44:46.400Z,0.34
2023-03-06T09:48:47.306Z,0.3
2023-03-06T09:52:46.435Z,0.3
2023-03-06T09:56:46.357Z,0.3
2023-03-06T10:00:50.766Z,0.3
2023-03-06T10:04:46.978Z,0.3
2023-03-06T10:08:46.897Z,0.26
2023-03-06T10:12:47.623Z,0.26
2023-03-06T10:16:47.355Z,0.26
2023-03-06T10:20:46.576Z,0.26
2023-03-06T10:24:46.651Z,0.26
2023-03-06T10:28:46.868Z,0.26
2023-03-06T10:32:59.474Z,0.26
2023-03-06T10:36:47.125Z,0.26
2023-03-06T10:40:46.949Z,0.26
2023-03-06T10:44:47.084Z,0.26
2023-03-06T10:48:46.617Z,0.26
2023-03-06T10:52:46.591Z,0.26
2023-03-06T10:56:46.633Z,0.26
2023-03-06T11:00:50.551Z,0.26
2023-03-06T11:04:47.141Z,0.26
2023-03-06T11:08:46.787Z,0.26
2023-03-06T11:12:46.782Z,0.26
2023-03-06T11:16:48.597Z,0.26
2023-03-06T11:21:02.058Z,0.26
2023-03-06T11:24:46.769Z,0.26
2023-03-06T11:28:46.886Z,0.26
2023-03-06T11:32:47.412Z,0.26
2023-03-06T11:36:47.083Z,0.26
2023-03-06T11:40:47.361Z,0.26
2023-03-06T11:44:47.307Z,0.26
2023-03-06T11:48:47.370Z,0.26
2023-03-06T11:52:47.330Z,0.26
2023-03-06T11:56:47.265Z,0.26
2023-03-06T12:00:47.227Z,0.26
2023-03-06T12:04:47.067Z,0.26
2023-03-06T12:08:46.868Z,0.26
2023-03-06T12:12:47.040Z,0.26
2023-03-06T12:16:47.362Z,0.26
2023-03-06T12:20:46.920Z,0.26
2023-03-06T12:24:46.955Z,0.26
2023-03-06T12:28:46.954Z,0.21
2023-03-06T12:32:47.739Z,0.21
2023-03-06T12:36:46.941Z,0.21
2023-03-06T12:40:47.568Z,0.21
2023-03-06T12:44:47.097Z,0.21
2023-03-06T12:48:46.917Z,0.26
2023-03-06T12:52:53.313Z,0.26
2023-03-06T12:56:46.751Z,0.21
2023-03-06T13:00:55.387Z,0.21
2023-03-06T13:04:47.237Z,0.21
2023-03-06T13:08:46.376Z,0.21
2023-03-06T13:12:47.306Z,0.21
2023-03-06T13:16:47.531Z,0.21
2023-03-06T13:20:47.623Z,0.26
2023-03-06T13:24:47.545Z,0.26
2023-03-06T13:28:47.276Z,0.26
2023-03-06T13:32:47.244Z,0.21
2023-03-06T13:36:50.811Z,0.21
2023-03-06T13:40:46.968Z,0.21
2023-03-06T13:44:47.158Z,0.21
2023-03-06T13:49:27.937Z,0.21
2023-03-06T13:52:46.850Z,0.21
2023-03-06T13:56:46.839Z,0.21
2023-03-06T14:00:55.103Z,0.21
2023-03-06T14:04:46.883Z,0.21
2023-03-06T14:08:46.845Z,0.21
2023-03-06T14:12:46.982Z,0.21
2023-03-06T14:17:00.913Z,0.21
2023-03-06T14:20:46.620Z,0.21
2023-03-06T14:24:47.308Z,0.21
2023-03-06T14:28:58.837Z,0.21
2023-03-06T14:32:46.699Z,0.21
2023-03-06T14:36:46.865Z,0.21
2023-03-06T14:40:46.995Z,0.21
2023-03-06T14:44:46.948Z,0.21
2023-03-06T14:48:47.154Z,0.26
2023-03-06T14:52:47.035Z,0.26
2023-03-06T14:56:46.714Z,0.26
2023-03-06T15:00:50.492Z,0.26
2023-03-06T15:04:47.252Z,0.21
2023-03-06T15:08:47.350Z,0.26
2023-03-06T15:12:47.346Z,0.26
2023-03-06T15:16:47.403Z,0.26
2023-03-06T15:20:47.195Z,0.26
2023-03-06T15:24:46.937Z,0.26
2023-03-06T15:28:47.594Z,0.26
2023-03-06T15:32:47.233Z,0.26
2023-03-06T15:36:47.302Z,0.26
2023-03-06T15:40:46.721Z,0.26
2023-03-06T15:44:46.822Z,0.26
2023-03-06T15:48:46.813Z,0.26
2023-03-06T15:52:46.462Z,0.26
2023-03-06T15:56:47.236Z,0.26
2023-03-06T16:01:02.033Z,0.26
2023-03-06T16:04:47.358Z,0.26
2023-03-06T16:08:47.281Z,0.26
2023-03-06T16:12:47.571Z,0.26
2023-03-06T16:16:47.214Z,0.26
2023-03-06T16:20:47.679Z,0.26
2023-03-06T16:24:46.939Z,0.26
2023-03-06T16:28:46.831Z,0.26
2023-03-06T16:32:50.916Z,0.26
2023-03-06T16:36:46.844Z,0.26
2023-03-06T16:40:46.946Z,0.26
2023-03-06T16:44:46.885Z,0.26
2023-03-06T16:48:46.609Z,0.26
2023-03-06T16:52:46.789Z,0.26
2023-03-06T16:56:46.431Z,0.26
2023-03-06T17:00:53.704Z,0.26
2023-03-06T17:04:47.184Z,0.26
2023-03-06T17:08:46.999Z,0.26
2023-03-06T17:12:47.361Z,0.26
2023-03-06T17:16:47.296Z,0.26
2023-03-06T17:20:47.463Z,0.26
2023-03-06T17:24:47.081Z,0.26
2023-03-06T17:28:47.101Z,0.26
2023-03-06T17:32:47.414Z,0.26
2023-03-06T17:36:47.096Z,0.26
2023-03-06T17:40:47.168Z,0.26
2023-03-06T17:44:47.327Z,0.26
2023-03-06T17:48:47.298Z,0.26
2023-03-06T17:52:47.392Z,0.26
2023-03-06T17:56:47.458Z,0.26
2023-03-06T18:00:50.754Z,0.26
2023-03-06T18:04:47.019Z,0.26
2023-03-06T18:08:46.829Z,0.26
2023-03-06T18:12:46.955Z,0.26
2023-03-06T18:16:47.112Z,0.26
2023-03-06T18:20:47.331Z,0.26
2023-03-06T18:24:46.613Z,0.26
2023-03-06T18:28:46.616Z,0.26
2023-03-06T18:32:46.880Z,0.26
2023-03-06T18:36:46.442Z,0.26
2023-03-06T18:40:47.546Z,0.26
2023-03-06T18:44:46.405Z,0.26
2023-03-06T18:48:47.448Z,0.26
2023-03-06T18:52:46.296Z,0.26
2023-03-06T18:56:47.309Z,0.26
2023-03-06T19:00:50.093Z,0.26
2023-03-06T19:04:47.399Z,0.26
2023-03-06T19:08:47.375Z,0.26
2023-03-06T19:12:46.344Z,0.26
2023-03-06T19:16:46.654Z,0.26
2023-03-06T19:20:46.654Z,0.26
2023-03-06T19:24:46.629Z,0.26
2023-03-06T19:28:46.783Z,0.26
2023-03-06T19:32:47.482Z,0.26
2023-03-06T19:36:47.166Z,0.26
2023-03-06T19:40:47.394Z,0.26
2023-03-06T19:44:47.247Z,0.26
2023-03-06T19:48:47.259Z,0.26
2023-03-06T19:52:46.419Z,0.26
2023-03-06T19:56:46.655Z,0.26
2023-03-06T20:00:52.203Z,0.26
2023-03-06T20:04:46.911Z,0.26
2023-03-06T20:08:46.535Z,0.26
2023-03-06T20:12:46.749Z,0.26
2023-03-06T20:16:46.734Z,0.26
2023-03-06T20:20:46.906Z,0.26
2023-03-06T20:24:47.018Z,0.26
2023-03-06T20:28:47.226Z,0.26
2023-03-06T20:32:47.435Z,0.26
2023-03-06T20:36:46.616Z,0.26
2023-03-06T20:40:46.806Z,0.26
2023-03-06T20:44:47.339Z,0.26
2023-03-06T20:48:47.106Z,0.26
2023-03-06T20:52:47.617Z,0.26
2023-03-06T20:56:47.306Z,0.26
2023-03-06T21:00:52.479Z,0.26
2023-03-06T21:04:46.820Z,0.26
2023-03-06T21:08:46.701Z,0.26
2023-03-06T21:12:46.662Z,0.26
2023-03-06T21:16:47.266Z,0.26
2023-03-06T21:20:46.811Z,0.26
2023-03-06T21:24:47.094Z,0.26
2023-03-06T21:28:47.133Z,0.26
2023-03-06T21:32:46.835Z,0.26
2023-03-06T21:36:46.431Z,0.26
2023-03-06T21:40:46.691Z,0.26
2023-03-06T21:44:46.806Z,0.26
2023-03-06T21:48:46.918Z,0.26
2023-03-06T21:52:49.104Z,0.26
2023-03-06T21:56:47.170Z,0.26
2023-03-06T22:00:51.349Z,0.26
2023-03-06T22:04:47.427Z,0.26
2023-03-06T22:08:47.059Z,0.26
2023-03-06T22:12:47.014Z,0.26
2023-03-06T22:16:47.247Z,0.26
2023-03-06T22:20:47.002Z,0.26
2023-03-06T22:24:46.894Z,0.26
2023-03-06T22:28:47.029Z,0.26
2023-03-06T22:32:47.427Z,0.26
2023-03-06T22:36:47.064Z,0.26
2023-03-06T22:40:47.107Z,0.26
2023-03-06T22:44:47.214Z,0.26
2023-03-06T22:48:56.070Z,0.26
2023-03-06T22:52:49.230Z,0.26
2023-03-06T22:56:46.552Z,0.26
2023-03-06T23:00:52.106Z,0.26
2023-03-06T23:04:47.019Z,0.26
2023-03-06T23:08:46.742Z,0.26
2023-03-06T23:12:46.898Z,0.26
2023-03-06T23:16:46.872Z,0.26
2023-03-06T23:20:47.103Z,0.26
2023-03-06T23:24:47.623Z,0.26
2023-03-06T23:28:47.160Z,0.26
2023-03-06T23:32:47.550Z,0.26
2023-03-06T23:36:47.358Z,0.26
2023-03-06T23:40:46.418Z,0.26
2023-03-06T23:44:46.629Z,0.26
2023-03-06T23:48:46.721Z,0.26
2023-03-06T23:52:46.743Z,0.26
2023-03-06T23:56:47.035Z,0.26
